Ровно, Украина

23 10, 2014 08:52 EEST (GMT +0300)
Rivne | Change Station
CLOSE
Current Station
Аэропорт
Location: Rivne,
Высота над уровнем моря: 758 ft
Ближайшие Погодные Станции

В.н.у.м. 758 ft 50.58 °N, 26.13 °E | Updated 22 minutes ago

Mostly Cloudy
Облачно
37 °F
Ощущается Как 28 °F
С
18
Ветер переменчевый Ветер от Восточный

Сегодня
Высокий -- | Низкий -- °F
--% Вероятн. осадков
Вчера
Высокий -- | Низкий -- °F
Precip. -- дюймов
7:50 AM 6:07 PM
Убывающий полумесяц, 0% visible
Давление 29.92 дюймов
Видимость -9999.0 милиь
Облачность Облачно 600 ft
Облачно 1000 ft
Температура с учетом ветра 28 °F
Точка Росы 36 °F
Влажность воздуха 93%
Дождь 0.00 дюймов
Глубина снега Нет в наличии.
УФ 0 из 12
Пыльца Нет в наличии.
Качество воздуха Нет в наличии.
Flu Activity Нет в наличии.
METAR UKLR 230530Z 08008MPS 060V120 3200 BR BKN006 BKN010CB 03/02 Q1013 NOSIG

More Conditions Fewer Conditions

Давление 29.92 дюймов
Видимость -9999.0 милиь
Облачность Облачно 600 ft
Облачно 1000 ft
Температура с учетом ветра 28 °F
Точка Росы 36 °F
Влажность воздуха 93%
Дождь 0.00 дюймов
Глубина снега Нет в наличии.
УФ 0 из 12
Пыльца Нет в наличии.
Качество воздуха Нет в наличии.
Flu Activity Нет в наличии.
METAR UKLR 230530Z 08008MPS 060V120 3200 BR BKN006 BKN010CB 03/02 Q1013 NOSIG

More Conditions Fewer Conditions

10-Day Weather Forecast

Almanac

Астрономические явления

Oct. 23, 2014 Восход Закат
Настоящее время 7:50 AM EEST 6:07 PM EEST
Гражданские сумерки 7:17 AM EEST 6:41 PM EEST
Навигационные сумерки 6:39 AM EEST 7:19 PM EEST
Астрономические сумерки 6:01 AM EEST 7:57 PM EEST
Луна 7:07 AM EEST 5:59 PM EEST
Длительность светового времени 11h 24m
Продолжительность Дня
10h 16m
Tomorrow will be 3m 37s shorter.
Убывающий полумесяц, 0% of the Moon is Illuminated
Сегодня
Убывающий полумесяц
Окт 23
Новая
Окт 30
Первая четверть
Нояб 6
Полнолуние
Нояб 14
Четвертая четверть

Вчерашние Экстремумы

Country Highs Country Lows

Community

WunderPhotos

Upload Photos

1,764,188 фотографии загружены!

Nearby

Качество воздуха

Not available.

Глубина Снега

Not available.

Сейсмическая активность

Город Distance Mag. Time & Date
No recent earthquake activity has been reported nearby.
Minimum magnitude displayed is 2.5.

Температура Прибрежных Вод

Место Температура
Нет зарегистрированных станций

Ближайшие Погодные Станции